sensor_id;sensor_type;location;lat;lon;timestamp;temperature;humidity
66213;SHT31;53015;50.046;8.238;2022-07-10T00:01:26;15.92;79.40
66213;SHT31;53015;50.046;8.238;2022-07-10T00:03:52;15.94;80.11
66213;SHT31;53015;50.046;8.238;2022-07-10T00:06:19;15.88;79.80
66213;SHT31;53015;50.046;8.238;2022-07-10T00:08:44;15.82;80.31
66213;SHT31;53015;50.046;8.238;2022-07-10T00:11:11;15.72;80.57
66213;SHT31;53015;50.046;8.238;2022-07-10T00:13:37;15.74;80.89
66213;SHT31;53015;50.046;8.238;2022-07-10T00:16:03;15.72;80.58
66213;SHT31;53015;50.046;8.238;2022-07-10T00:18:28;15.80;79.64
66213;SHT31;53015;50.046;8.238;2022-07-10T00:20:54;15.77;80.49
66213;SHT31;53015;50.046;8.238;2022-07-10T00:23:19;15.84;79.39
66213;SHT31;53015;50.046;8.238;2022-07-10T00:25:45;15.81;79.89
66213;SHT31;53015;50.046;8.238;2022-07-10T00:28:10;15.71;79.87
66213;SHT31;53015;50.046;8.238;2022-07-10T00:30:37;15.78;79.35
66213;SHT31;53015;50.046;8.238;2022-07-10T00:33:03;15.77;79.20
66213;SHT31;53015;50.046;8.238;2022-07-10T00:35:28;15.78;79.13
66213;SHT31;53015;50.046;8.238;2022-07-10T00:37:54;15.74;79.11
66213;SHT31;53015;50.046;8.238;2022-07-10T00:40:20;15.70;79.47
66213;SHT31;53015;50.046;8.238;2022-07-10T00:42:45;15.67;79.58
66213;SHT31;53015;50.046;8.238;2022-07-10T00:45:11;15.57;79.69
66213;SHT31;53015;50.046;8.238;2022-07-10T00:47:37;15.47;80.47
66213;SHT31;53015;50.046;8.238;2022-07-10T00:50:03;15.46;80.12
66213;SHT31;53015;50.046;8.238;2022-07-10T00:52:29;15.42;80.27
66213;SHT31;53015;50.046;8.238;2022-07-10T00:54:55;15.42;80.42
66213;SHT31;53015;50.046;8.238;2022-07-10T00:57:22;15.37;80.39
66213;SHT31;53015;50.046;8.238;2022-07-10T00:59:48;15.44;80.11
66213;SHT31;53015;50.046;8.238;2022-07-10T01:02:14;15.39;80.18
66213;SHT31;53015;50.046;8.238;2022-07-10T01:04:39;15.29;80.86
66213;SHT31;53015;50.046;8.238;2022-07-10T01:07:05;15.25;80.87
66213;SHT31;53015;50.046;8.238;2022-07-10T01:09:32;15.35;81.21
66213;SHT31;53015;50.046;8.238;2022-07-10T01:12:00;15.25;80.92
66213;SHT31;53015;50.046;8.238;2022-07-10T01:14:27;15.19;81.55
66213;SHT31;53015;50.046;8.238;2022-07-10T01:16:53;15.25;80.95
66213;SHT31;53015;50.046;8.238;2022-07-10T01:19:19;15.25;81.47
66213;SHT31;53015;50.046;8.238;2022-07-10T01:21:44;15.26;80.72
66213;SHT31;53015;50.046;8.238;2022-07-10T01:24:10;15.30;80.97
66213;SHT31;53015;50.046;8.238;2022-07-10T01:26:37;15.39;80.62
66213;SHT31;53015;50.046;8.238;2022-07-10T01:29:05;15.49;79.95
66213;SHT31;53015;50.046;8.238;2022-07-10T01:31:31;15.51;78.82
66213;SHT31;53015;50.046;8.238;2022-07-10T01:33:59;15.50;78.30
66213;SHT31;53015;50.046;8.238;2022-07-10T01:36:25;15.43;78.63
66213;SHT31;53015;50.046;8.238;2022-07-10T01:38:53;15.36;79.21
66213;SHT31;53015;50.046;8.238;2022-07-10T01:41:19;15.39;78.71
66213;SHT31;53015;50.046;8.238;2022-07-10T01:43:45;15.44;78.28
66213;SHT31;53015;50.046;8.238;2022-07-10T01:46:11;15.49;77.82
66213;SHT31;53015;50.046;8.238;2022-07-10T01:48:38;15.49;77.82
66213;SHT31;53015;50.046;8.238;2022-07-10T01:51:04;15.43;77.76
66213;SHT31;53015;50.046;8.238;2022-07-10T01:53:29;15.51;77.85
66213;SHT31;53015;50.046;8.238;2022-07-10T01:55:55;15.43;77.76
66213;SHT31;53015;50.046;8.238;2022-07-10T01:58:20;15.43;77.71
66213;SHT31;53015;50.046;8.238;2022-07-10T02:00:46;15.30;78.28
66213;SHT31;53015;50.046;8.238;2022-07-10T02:03:11;15.26;78.76
66213;SHT31;53015;50.046;8.238;2022-07-10T02:05:55;15.23;78.61
66213;SHT31;53015;50.046;8.238;2022-07-10T02:08:20;15.10;78.88
66213;SHT31;53015;50.046;8.238;2022-07-10T02:10:46;15.20;78.00
66213;SHT31;53015;50.046;8.238;2022-07-10T02:13:11;15.18;77.74
66213;SHT31;53015;50.046;8.238;2022-07-10T02:15:40;15.13;77.95
66213;SHT31;53015;50.046;8.238;2022-07-10T02:18:05;15.08;78.14
66213;SHT31;53015;50.046;8.238;2022-07-10T02:20:31;15.06;78.25
66213;SHT31;53015;50.046;8.238;2022-07-10T02:22:58;15.09;78.08
66213;SHT31;53015;50.046;8.238;2022-07-10T02:25:24;15.12;77.69
66213;SHT31;53015;50.046;8.238;2022-07-10T02:27:49;15.03;78.08
66213;SHT31;53015;50.046;8.238;2022-07-10T02:30:14;15.03;77.48
66213;SHT31;53015;50.046;8.238;2022-07-10T02:32:40;14.99;77.65
66213;SHT31;53015;50.046;8.238;2022-07-10T02:35:05;15.02;77.40
66213;SHT31;53015;50.046;8.238;2022-07-10T02:37:31;15.02;77.74
66213;SHT31;53015;50.046;8.238;2022-07-10T02:39:56;15.10;77.86
66213;SHT31;53015;50.046;8.238;2022-07-10T02:42:22;15.10;76.92
66213;SHT31;53015;50.046;8.238;2022-07-10T02:44:47;15.06;77.02
66213;SHT31;53015;50.046;8.238;2022-07-10T02:47:13;15.08;76.64
66213;SHT31;53015;50.046;8.238;2022-07-10T02:49:38;14.96;76.15
66213;SHT31;53015;50.046;8.238;2022-07-10T02:52:04;14.92;76.85
66213;SHT31;53015;50.046;8.238;2022-07-10T02:54:30;14.84;77.22
66213;SHT31;53015;50.046;8.238;2022-07-10T02:56:55;14.85;77.39
66213;SHT31;53015;50.046;8.238;2022-07-10T02:59:20;14.77;77.87
66213;SHT31;53015;50.046;8.238;2022-07-10T03:01:46;14.77;77.92
66213;SHT31;53015;50.046;8.238;2022-07-10T03:04:11;14.70;77.95
66213;SHT31;53015;50.046;8.238;2022-07-10T03:06:37;14.70;77.90
66213;SHT31;53015;50.046;8.238;2022-07-10T03:09:03;14.70;77.28
66213;SHT31;53015;50.046;8.238;2022-07-10T03:11:28;14.64;77.49
66213;SHT31;53015;50.046;8.238;2022-07-10T03:13:54;14.51;77.79
66213;SHT31;53015;50.046;8.238;2022-07-10T03:16:19;14.40;78.46
66213;SHT31;53015;50.046;8.238;2022-07-10T03:18:45;14.27;78.73
66213;SHT31;53015;50.046;8.238;2022-07-10T03:21:11;14.32;78.76
66213;SHT31;53015;50.046;8.238;2022-07-10T03:23:36;14.24;78.71
66213;SHT31;53015;50.046;8.238;2022-07-10T03:26:01;14.33;78.35
66213;SHT31;53015;50.046;8.238;2022-07-10T03:28:27;14.30;78.14
66213;SHT31;53015;50.046;8.238;2022-07-10T03:30:52;14.26;77.30
66213;SHT31;53015;50.046;8.238;2022-07-10T03:33:18;14.17;77.50
66213;SHT31;53015;50.046;8.238;2022-07-10T03:35:43;14.20;77.86
66213;SHT31;53015;50.046;8.238;2022-07-10T03:38:08;14.27;77.10
66213;SHT31;53015;50.046;8.238;2022-07-10T03:40:34;14.15;77.34
66213;SHT31;53015;50.046;8.238;2022-07-10T03:42:59;14.10;77.54
66213;SHT31;53015;50.046;8.238;2022-07-10T03:45:25;14.05;78.16
66213;SHT31;53015;50.046;8.238;2022-07-10T03:47:50;14.12;78.01
66213;SHT31;53015;50.046;8.238;2022-07-10T03:50:16;14.16;78.60
66213;SHT31;53015;50.046;8.238;2022-07-10T03:52:41;14.08;79.44
66213;SHT31;53015;50.046;8.238;2022-07-10T03:55:07;14.05;78.70
66213;SHT31;53015;50.046;8.238;2022-07-10T03:57:32;14.13;79.51
66213;SHT31;53015;50.046;8.238;2022-07-10T04:00:16;14.08;78.55
66213;SHT31;53015;50.046;8.238;2022-07-10T04:02:42;14.01;78.68
66213;SHT31;53015;50.046;8.238;2022-07-10T04:05:08;13.99;78.79
66213;SHT31;53015;50.046;8.238;2022-07-10T04:07:37;14.16;78.55
66213;SHT31;53015;50.046;8.238;2022-07-10T04:10:03;13.95;78.46
66213;SHT31;53015;50.046;8.238;2022-07-10T04:12:28;13.96;78.55
66213;SHT31;53015;50.046;8.238;2022-07-10T04:14:54;13.83;79.23
66213;SHT31;53015;50.046;8.238;2022-07-10T04:17:20;13.86;78.21
66213;SHT31;53015;50.046;8.238;2022-07-10T04:19:45;13.89;78.27
66213;SHT31;53015;50.046;8.238;2022-07-10T04:22:11;13.86;77.70
66213;SHT31;53015;50.046;8.238;2022-07-10T04:24:37;13.85;77.47
66213;SHT31;53015;50.046;8.238;2022-07-10T04:27:02;13.83;76.96
66213;SHT31;53015;50.046;8.238;2022-07-10T04:29:28;13.85;76.40
66213;SHT31;53015;50.046;8.238;2022-07-10T04:31:53;14.01;76.51
66213;SHT31;53015;50.046;8.238;2022-07-10T04:34:19;13.98;76.25
66213;SHT31;53015;50.046;8.238;2022-07-10T04:36:45;14.01;76.31
66213;SHT31;53015;50.046;8.238;2022-07-10T04:39:10;13.99;77.42
66213;SHT31;53015;50.046;8.238;2022-07-10T04:41:35;14.01;76.49
66213;SHT31;53015;50.046;8.238;2022-07-10T04:44:01;14.01;76.60
66213;SHT31;53015;50.046;8.238;2022-07-10T04:46:26;14.08;75.88
66213;SHT31;53015;50.046;8.238;2022-07-10T04:48:52;14.05;75.92
66213;SHT31;53015;50.046;8.238;2022-07-10T04:51:17;14.12;75.37
66213;SHT31;53015;50.046;8.238;2022-07-10T04:53:43;14.22;75.09
66213;SHT31;53015;50.046;8.238;2022-07-10T04:56:09;14.37;74.96
66213;SHT31;53015;50.046;8.238;2022-07-10T04:58:34;14.30;75.41
66213;SHT31;53015;50.046;8.238;2022-07-10T05:01:00;14.29;74.79
66213;SHT31;53015;50.046;8.238;2022-07-10T05:03:26;14.37;74.36
66213;SHT31;53015;50.046;8.238;2022-07-10T05:05:51;14.43;74.12
66213;SHT31;53015;50.046;8.238;2022-07-10T05:08:16;14.56;74.50
66213;SHT31;53015;50.046;8.238;2022-07-10T05:10:42;14.64;73.53
66213;SHT31;53015;50.046;8.238;2022-07-10T05:13:07;14.63;74.30
66213;SHT31;53015;50.046;8.238;2022-07-10T05:15:32;14.65;73.66
66213;SHT31;53015;50.046;8.238;2022-07-10T05:17:58;14.74;73.42
66213;SHT31;53015;50.046;8.238;2022-07-10T05:20:23;14.65;74.04
66213;SHT31;53015;50.046;8.238;2022-07-10T05:22:48;14.72;72.64
66213;SHT31;53015;50.046;8.238;2022-07-10T05:25:14;14.75;73.52
66213;SHT31;53015;50.046;8.238;2022-07-10T05:27:39;14.72;73.51
66213;SHT31;53015;50.046;8.238;2022-07-10T05:30:05;14.88;72.05
66213;SHT31;53015;50.046;8.238;2022-07-10T05:32:30;14.98;72.54
66213;SHT31;53015;50.046;8.238;2022-07-10T05:34:59;14.92;72.75
66213;SHT31;53015;50.046;8.238;2022-07-10T05:37:24;14.84;72.98
66213;SHT31;53015;50.046;8.238;2022-07-10T05:39:50;14.88;73.64
66213;SHT31;53015;50.046;8.238;2022-07-10T05:42:15;14.68;74.00
66213;SHT31;53015;50.046;8.238;2022-07-10T05:44:40;14.63;73.64
66213;SHT31;53015;50.046;8.238;2022-07-10T05:47:06;14.77;73.45
66213;SHT31;53015;50.046;8.238;2022-07-10T05:49:32;14.81;71.58
66213;SHT31;53015;50.046;8.238;2022-07-10T05:51:58;14.96;72.59
66213;SHT31;53015;50.046;8.238;2022-07-10T05:54:23;14.84;71.02
66213;SHT31;53015;50.046;8.238;2022-07-10T05:56:48;14.95;71.20
66213;SHT31;53015;50.046;8.238;2022-07-10T05:59:14;14.95;70.61
66213;SHT31;53015;50.046;8.238;2022-07-10T06:01:40;14.92;70.49
66213;SHT31;53015;50.046;8.238;2022-07-10T06:04:05;14.95;70.91
66213;SHT31;53015;50.046;8.238;2022-07-10T06:06:31;15.03;70.48
66213;SHT31;53015;50.046;8.238;2022-07-10T06:08:56;15.13;68.63
66213;SHT31;53015;50.046;8.238;2022-07-10T06:11:22;15.16;66.95
66213;SHT31;53015;50.046;8.238;2022-07-10T06:13:47;15.26;67.62
66213;SHT31;53015;50.046;8.238;2022-07-10T06:16:12;15.23;67.78
66213;SHT31;53015;50.046;8.238;2022-07-10T06:18:38;15.40;66.51
66213;SHT31;53015;50.046;8.238;2022-07-10T06:21:03;15.57;65.69
66213;SHT31;53015;50.046;8.238;2022-07-10T06:23:29;15.65;63.18
66213;SHT31;53015;50.046;8.238;2022-07-10T06:25:54;15.77;62.52
66213;SHT31;53015;50.046;8.238;2022-07-10T06:28:20;15.78;61.98
66213;SHT31;53015;50.046;8.238;2022-07-10T06:30:46;15.65;62.47
66213;SHT31;53015;50.046;8.238;2022-07-10T06:33:12;15.74;62.95
66213;SHT31;53015;50.046;8.238;2022-07-10T06:35:37;15.68;61.89
66213;SHT31;53015;50.046;8.238;2022-07-10T06:38:03;15.78;62.08
66213;SHT31;53015;50.046;8.238;2022-07-10T06:40:29;15.77;61.38
66213;SHT31;53015;50.046;8.238;2022-07-10T06:42:55;15.71;60.86
66213;SHT31;53015;50.046;8.238;2022-07-10T06:45:20;15.88;60.82
66213;SHT31;53015;50.046;8.238;2022-07-10T06:47:46;16.02;60.18
66213;SHT31;53015;50.046;8.238;2022-07-10T06:50:28;16.09;59.57
66213;SHT31;53015;50.046;8.238;2022-07-10T06:52:59;16.16;59.66
66213;SHT31;53015;50.046;8.238;2022-07-10T06:55:25;16.19;59.71
66213;SHT31;53015;50.046;8.238;2022-07-10T06:57:52;16.19;59.79
66213;SHT31;53015;50.046;8.238;2022-07-10T07:00:17;16.23;58.82
66213;SHT31;53015;50.046;8.238;2022-07-10T07:02:43;15.99;59.19
66213;SHT31;53015;50.046;8.238;2022-07-10T07:05:09;16.02;59.04
66213;SHT31;53015;50.046;8.238;2022-07-10T07:07:35;16.10;59.55
66213;SHT31;53015;50.046;8.238;2022-07-10T07:10:02;16.25;59.10
66213;SHT31;53015;50.046;8.238;2022-07-10T07:12:28;16.22;58.96
66213;SHT31;53015;50.046;8.238;2022-07-10T07:14:53;16.26;58.15
66213;SHT31;53015;50.046;8.238;2022-07-10T07:17:19;16.37;57.04
66213;SHT31;53015;50.046;8.238;2022-07-10T07:19:49;16.53;57.38
66213;SHT31;53015;50.046;8.238;2022-07-10T07:22:33;16.75;56.39
66213;SHT31;53015;50.046;8.238;2022-07-10T07:25:17;17.00;55.61
66213;SHT31;53015;50.046;8.238;2022-07-10T07:27:43;16.96;55.23
66213;SHT31;53015;50.046;8.238;2022-07-10T07:30:14;16.89;55.75
66213;SHT31;53015;50.046;8.238;2022-07-10T07:32:44;16.94;55.15
66213;SHT31;53015;50.046;8.238;2022-07-10T07:35:10;16.92;54.96
66213;SHT31;53015;50.046;8.238;2022-07-10T07:37:44;16.78;54.76
66213;SHT31;53015;50.046;8.238;2022-07-10T07:40:15;16.91;55.50
66213;SHT31;53015;50.046;8.238;2022-07-10T07:42:41;17.00;55.43
66213;SHT31;53015;50.046;8.238;2022-07-10T07:45:07;17.29;55.85
66213;SHT31;53015;50.046;8.238;2022-07-10T07:47:43;17.40;54.98
66213;SHT31;53015;50.046;8.238;2022-07-10T07:50:10;17.32;53.04
66213;SHT31;53015;50.046;8.238;2022-07-10T07:52:35;17.30;54.15
66213;SHT31;53015;50.046;8.238;2022-07-10T07:55:01;17.47;52.85
66213;SHT31;53015;50.046;8.238;2022-07-10T07:57:26;17.54;54.24
66213;SHT31;53015;50.046;8.238;2022-07-10T07:59:52;17.77;53.08
66213;SHT31;53015;50.046;8.238;2022-07-10T08:02:17;17.81;54.00
66213;SHT31;53015;50.046;8.238;2022-07-10T08:04:42;17.63;52.87
66213;SHT31;53015;50.046;8.238;2022-07-10T08:07:08;17.54;53.65
66213;SHT31;53015;50.046;8.238;2022-07-10T08:09:33;17.59;54.10
66213;SHT31;53015;50.046;8.238;2022-07-10T08:12:00;17.56;54.16
66213;SHT31;53015;50.046;8.238;2022-07-10T08:14:25;17.43;54.99
66213;SHT31;53015;50.046;8.238;2022-07-10T08:16:51;17.38;55.47
66213;SHT31;53015;50.046;8.238;2022-07-10T08:19:16;17.39;56.22
66213;SHT31;53015;50.046;8.238;2022-07-10T08:21:41;17.35;55.88
66213;SHT31;53015;50.046;8.238;2022-07-10T08:24:07;17.46;55.86
66213;SHT31;53015;50.046;8.238;2022-07-10T08:26:32;17.51;56.16
66213;SHT31;53015;50.046;8.238;2022-07-10T08:28:58;17.53;55.86
66213;SHT31;53015;50.046;8.238;2022-07-10T08:31:23;17.93;56.07
66213;SHT31;53015;50.046;8.238;2022-07-10T08:33:48;18.00;55.52
66213;SHT31;53015;50.046;8.238;2022-07-10T08:36:16;17.93;55.41
66213;SHT31;53015;50.046;8.238;2022-07-10T08:38:41;18.04;55.56
66213;SHT31;53015;50.046;8.238;2022-07-10T08:41:06;18.21;55.20
66213;SHT31;53015;50.046;8.238;2022-07-10T08:43:32;18.43;55.07
66213;SHT31;53015;50.046;8.238;2022-07-10T08:45:58;18.25;55.05
66213;SHT31;53015;50.046;8.238;2022-07-10T08:48:24;18.02;56.08
66213;SHT31;53015;50.046;8.238;2022-07-10T08:50:54;17.87;56.75
66213;SHT31;53015;50.046;8.238;2022-07-10T08:53:30;17.70;56.58
66213;SHT31;53015;50.046;8.238;2022-07-10T08:55:57;17.46;56.55
66213;SHT31;53015;50.046;8.238;2022-07-10T08:58:23;17.25;57.71
66213;SHT31;53015;50.046;8.238;2022-07-10T09:00:48;17.56;57.18
66213;SHT31;53015;50.046;8.238;2022-07-10T09:03:14;17.88;55.79
66213;SHT31;53015;50.046;8.238;2022-07-10T09:05:39;18.15;54.14
66213;SHT31;53015;50.046;8.238;2022-07-10T09:08:24;18.31;54.17
66213;SHT31;53015;50.046;8.238;2022-07-10T09:10:52;18.57;53.55
66213;SHT31;53015;50.046;8.238;2022-07-10T09:13:17;18.73;52.65
66213;SHT31;53015;50.046;8.238;2022-07-10T09:15:48;18.70;52.67
66213;SHT31;53015;50.046;8.238;2022-07-10T09:18:18;18.79;52.50
66213;SHT31;53015;50.046;8.238;2022-07-10T09:20:45;18.94;51.17
66213;SHT31;53015;50.046;8.238;2022-07-10T09:23:16;18.91;51.15
66213;SHT31;53015;50.046;8.238;2022-07-10T09:25:49;18.87;49.54
66213;SHT31;53015;50.046;8.238;2022-07-10T09:28:19;19.00;49.76
66213;SHT31;53015;50.046;8.238;2022-07-10T09:30:46;18.94;50.45
66213;SHT31;53015;50.046;8.238;2022-07-10T09:36:13;18.49;52.05
66213;SHT31;53015;50.046;8.238;2022-07-10T09:41:30;18.05;53.28
66213;SHT31;53015;50.046;8.238;2022-07-10T09:43:57;18.19;53.97
66213;SHT31;53015;50.046;8.238;2022-07-10T09:46:27;18.14;53.66
66213;SHT31;53015;50.046;8.238;2022-07-10T09:49:04;18.15;54.24
66213;SHT31;53015;50.046;8.238;2022-07-10T09:51:31;18.18;54.42
66213;SHT31;53015;50.046;8.238;2022-07-10T09:54:00;18.42;53.68
66213;SHT31;53015;50.046;8.238;2022-07-10T09:56:26;18.55;52.57
66213;SHT31;53015;50.046;8.238;2022-07-10T09:58:55;18.70;51.82
66213;SHT31;53015;50.046;8.238;2022-07-10T10:01:23;18.81;51.77
66213;SHT31;53015;50.046;8.238;2022-07-10T10:03:49;19.16;51.85
66213;SHT31;53015;50.046;8.238;2022-07-10T10:06:15;19.36;51.37
66213;SHT31;53015;50.046;8.238;2022-07-10T10:08:48;19.77;50.73
66213;SHT31;53015;50.046;8.238;2022-07-10T10:11:20;19.87;49.75
66213;SHT31;53015;50.046;8.238;2022-07-10T10:13:46;19.90;49.97
66213;SHT31;53015;50.046;8.238;2022-07-10T10:16:12;19.53;50.58
66213;SHT31;53015;50.046;8.238;2022-07-10T10:18:38;19.19;50.87
66213;SHT31;53015;50.046;8.238;2022-07-10T10:21:27;19.18;52.32
66213;SHT31;53015;50.046;8.238;2022-07-10T10:23:54;19.28;51.59
66213;SHT31;53015;50.046;8.238;2022-07-10T10:26:21;19.26;51.12
66213;SHT31;53015;50.046;8.238;2022-07-10T10:28:49;19.35;51.15
66213;SHT31;53015;50.046;8.238;2022-07-10T10:31:14;19.49;50.26
66213;SHT31;53015;50.046;8.238;2022-07-10T10:33:42;19.72;50.90
66213;SHT31;53015;50.046;8.238;2022-07-10T10:36:08;19.84;50.27
66213;SHT31;53015;50.046;8.238;2022-07-10T10:41:52;19.80;51.33
66213;SHT31;53015;50.046;8.238;2022-07-10T10:49:23;20.03;50.76
66213;SHT31;53015;50.046;8.238;2022-07-10T10:52:06;19.83;50.34
66213;SHT31;53015;50.046;8.238;2022-07-10T11:00:02;20.49;47.71
66213;SHT31;53015;50.046;8.238;2022-07-10T11:02:36;20.44;47.74
66213;SHT31;53015;50.046;8.238;2022-07-10T11:07:59;20.44;47.22
66213;SHT31;53015;50.046;8.238;2022-07-10T11:10:35;20.68;47.43
66213;SHT31;53015;50.046;8.238;2022-07-10T11:13:17;20.51;47.18
66213;SHT31;53015;50.046;8.238;2022-07-10T11:15:47;20.76;46.90
66213;SHT31;53015;50.046;8.238;2022-07-10T11:18:21;20.89;47.51
66213;SHT31;53015;50.046;8.238;2022-07-10T11:20:53;20.89;47.04
66213;SHT31;53015;50.046;8.238;2022-07-10T11:26:07;20.83;47.47
66213;SHT31;53015;50.046;8.238;2022-07-10T11:31:21;20.76;47.29
66213;SHT31;53015;50.046;8.238;2022-07-10T11:33:48;20.79;47.36
66213;SHT31;53015;50.046;8.238;2022-07-10T11:36:24;20.86;47.43
66213;SHT31;53015;50.046;8.238;2022-07-10T11:39:02;21.04;47.13
66213;SHT31;53015;50.046;8.238;2022-07-10T11:41:29;21.03;47.28
66213;SHT31;53015;50.046;8.238;2022-07-10T11:43:56;21.06;47.55
66213;SHT31;53015;50.046;8.238;2022-07-10T11:46:23;21.27;46.73
66213;SHT31;53015;50.046;8.238;2022-07-10T11:48:51;21.30;46.82
66213;SHT31;53015;50.046;8.238;2022-07-10T11:51:28;21.18;47.52
66213;SHT31;53015;50.046;8.238;2022-07-10T11:54:05;21.06;47.08
66213;SHT31;53015;50.046;8.238;2022-07-10T11:56:35;21.41;46.55
66213;SHT31;53015;50.046;8.238;2022-07-10T11:59:02;21.65;46.59
66213;SHT31;53015;50.046;8.238;2022-07-10T12:01:30;21.56;46.61
66213;SHT31;53015;50.046;8.238;2022-07-10T12:04:03;21.55;46.96
66213;SHT31;53015;50.046;8.238;2022-07-10T12:06:31;21.75;46.63
66213;SHT31;53015;50.046;8.238;2022-07-10T12:09:04;21.49;46.62
66213;SHT31;53015;50.046;8.238;2022-07-10T12:11:30;21.85;46.21
66213;SHT31;53015;50.046;8.238;2022-07-10T12:14:13;21.76;46.98
66213;SHT31;53015;50.046;8.238;2022-07-10T12:16:44;21.58;46.58
66213;SHT31;53015;50.046;8.238;2022-07-10T12:19:12;21.59;47.54
66213;SHT31;53015;50.046;8.238;2022-07-10T12:21:39;21.38;47.72
66213;SHT31;53015;50.046;8.238;2022-07-10T12:24:07;21.49;47.92
66213;SHT31;53015;50.046;8.238;2022-07-10T12:26:38;21.73;47.95
66213;SHT31;53015;50.046;8.238;2022-07-10T12:29:04;21.59;47.95
66213;SHT31;53015;50.046;8.238;2022-07-10T12:31:33;21.30;48.57
66213;SHT31;53015;50.046;8.238;2022-07-10T12:34:01;21.24;48.39
66213;SHT31;53015;50.046;8.238;2022-07-10T12:36:46;21.47;48.24
66213;SHT31;53015;50.046;8.238;2022-07-10T12:39:14;21.75;47.07
66213;SHT31;53015;50.046;8.238;2022-07-10T12:44:42;21.39;47.86
66213;SHT31;53015;50.046;8.238;2022-07-10T12:47:12;21.37;48.34
66213;SHT31;53015;50.046;8.238;2022-07-10T12:50:07;21.24;48.32
66213;SHT31;53015;50.046;8.238;2022-07-10T12:52:35;21.14;48.88
66213;SHT31;53015;50.046;8.238;2022-07-10T12:55:16;21.17;48.68
66213;SHT31;53015;50.046;8.238;2022-07-10T12:57:46;21.20;48.75
66213;SHT31;53015;50.046;8.238;2022-07-10T13:00:13;21.42;48.40
66213;SHT31;53015;50.046;8.238;2022-07-10T13:02:38;21.45;48.61
66213;SHT31;53015;50.046;8.238;2022-07-10T13:05:04;21.49;48.15
66213;SHT31;53015;50.046;8.238;2022-07-10T13:07:34;21.72;48.35
66213;SHT31;53015;50.046;8.238;2022-07-10T13:10:04;21.85;48.12
66213;SHT31;53015;50.046;8.238;2022-07-10T13:12:31;22.16;47.60
66213;SHT31;53015;50.046;8.238;2022-07-10T13:14:57;22.21;46.97
66213;SHT31;53015;50.046;8.238;2022-07-10T13:17:22;22.24;46.88
66213;SHT31;53015;50.046;8.238;2022-07-10T13:19:49;21.93;46.98
66213;SHT31;53015;50.046;8.238;2022-07-10T13:22:15;21.67;47.93
66213;SHT31;53015;50.046;8.238;2022-07-10T13:24:41;21.61;48.12
66213;SHT31;53015;50.046;8.238;2022-07-10T13:27:06;21.76;48.39
66213;SHT31;53015;50.046;8.238;2022-07-10T13:29:32;21.92;48.29
66213;SHT31;53015;50.046;8.238;2022-07-10T13:31:57;21.85;48.41
66213;SHT31;53015;50.046;8.238;2022-07-10T13:34:23;22.11;48.33
66213;SHT31;53015;50.046;8.238;2022-07-10T13:36:48;21.79;49.67
66213;SHT31;53015;50.046;8.238;2022-07-10T13:39:14;21.75;50.02
66213;SHT31;53015;50.046;8.238;2022-07-10T13:41:40;21.97;49.28
66213;SHT31;53015;50.046;8.238;2022-07-10T13:44:05;21.78;49.73
66213;SHT31;53015;50.046;8.238;2022-07-10T13:46:30;21.59;50.36
66213;SHT31;53015;50.046;8.238;2022-07-10T13:48:56;21.52;50.66
66213;SHT31;53015;50.046;8.238;2022-07-10T13:51:21;21.67;50.35
66213;SHT31;53015;50.046;8.238;2022-07-10T13:53:47;21.71;50.49
66213;SHT31;53015;50.046;8.238;2022-07-10T13:56:13;21.51;50.48
66213;SHT31;53015;50.046;8.238;2022-07-10T13:58:38;21.62;51.55
66213;SHT31;53015;50.046;8.238;2022-07-10T14:01:04;21.90;51.29
66213;SHT31;53015;50.046;8.238;2022-07-10T14:03:30;22.20;50.03
66213;SHT31;53015;50.046;8.238;2022-07-10T14:05:56;21.82;50.31
66213;SHT31;53015;50.046;8.238;2022-07-10T14:08:22;21.52;51.11
66213;SHT31;53015;50.046;8.238;2022-07-10T14:10:47;21.71;51.27
66213;SHT31;53015;50.046;8.238;2022-07-10T14:13:13;21.73;51.45
66213;SHT31;53015;50.046;8.238;2022-07-10T14:15:38;21.73;50.58
66213;SHT31;53015;50.046;8.238;2022-07-10T14:18:05;21.71;50.88
66213;SHT31;53015;50.046;8.238;2022-07-10T14:20:31;21.58;50.82
66213;SHT31;53015;50.046;8.238;2022-07-10T14:23:16;21.61;51.43
66213;SHT31;53015;50.046;8.238;2022-07-10T14:25:42;21.72;51.57
66213;SHT31;53015;50.046;8.238;2022-07-10T14:28:07;21.65;50.90
66213;SHT31;53015;50.046;8.238;2022-07-10T14:30:32;21.83;51.41
66213;SHT31;53015;50.046;8.238;2022-07-10T14:32:58;21.62;51.73
66213;SHT31;53015;50.046;8.238;2022-07-10T14:35:23;21.30;52.37
66213;SHT31;53015;50.046;8.238;2022-07-10T14:37:49;21.45;52.15
66213;SHT31;53015;50.046;8.238;2022-07-10T14:40:14;21.42;52.14
66213;SHT31;53015;50.046;8.238;2022-07-10T14:42:39;21.31;52.53
66213;SHT31;53015;50.046;8.238;2022-07-10T14:45:05;21.45;52.67
66213;SHT31;53015;50.046;8.238;2022-07-10T14:47:31;21.56;52.16
66213;SHT31;53015;50.046;8.238;2022-07-10T14:49:58;22.17;50.86
66213;SHT31;53015;50.046;8.238;2022-07-10T14:52:23;22.40;50.22
66213;SHT31;53015;50.046;8.238;2022-07-10T14:54:50;22.40;50.81
66213;SHT31;53015;50.046;8.238;2022-07-10T14:57:16;22.06;50.86
66213;SHT31;53015;50.046;8.238;2022-07-10T14:59:42;22.29;50.67
66213;SHT31;53015;50.046;8.238;2022-07-10T15:02:07;22.43;49.76
66213;SHT31;53015;50.046;8.238;2022-07-10T15:04:32;22.20;50.96
66213;SHT31;53015;50.046;8.238;2022-07-10T15:06:58;22.64;49.64
66213;SHT31;53015;50.046;8.238;2022-07-10T15:09:23;22.14;50.65
66213;SHT31;53015;50.046;8.238;2022-07-10T15:11:49;22.72;49.64
66213;SHT31;53015;50.046;8.238;2022-07-10T15:14:14;23.51;47.86
66213;SHT31;53015;50.046;8.238;2022-07-10T15:16:39;24.30;45.91
66213;SHT31;53015;50.046;8.238;2022-07-10T15:19:05;25.16;44.23
66213;SHT31;53015;50.046;8.238;2022-07-10T15:21:31;25.75;43.06
66213;SHT31;53015;50.046;8.238;2022-07-10T15:23:57;25.90;43.60
66213;SHT31;53015;50.046;8.238;2022-07-10T15:26:22;26.73;41.26
66213;SHT31;53015;50.046;8.238;2022-07-10T15:28:48;25.54;43.04
66213;SHT31;53015;50.046;8.238;2022-07-10T15:31:13;26.31;43.20
66213;SHT31;53015;50.046;8.238;2022-07-10T15:33:38;25.14;45.34
66213;SHT31;53015;50.046;8.238;2022-07-10T15:36:09;24.72;45.54
66213;SHT31;53015;50.046;8.238;2022-07-10T15:38:35;23.37;48.13
66213;SHT31;53015;50.046;8.238;2022-07-10T15:41:00;23.10;48.97
66213;SHT31;53015;50.046;8.238;2022-07-10T15:43:26;22.64;50.61
66213;SHT31;53015;50.046;8.238;2022-07-10T15:45:54;22.25;51.29
66213;SHT31;53015;50.046;8.238;2022-07-10T15:48:19;23.36;49.06
66213;SHT31;53015;50.046;8.238;2022-07-10T15:50:46;23.06;49.60
66213;SHT31;53015;50.046;8.238;2022-07-10T15:53:11;22.82;50.48
66213;SHT31;53015;50.046;8.238;2022-07-10T15:55:37;22.93;50.29
66213;SHT31;53015;50.046;8.238;2022-07-10T15:58:02;23.23;49.66
66213;SHT31;53015;50.046;8.238;2022-07-10T16:00:28;23.13;50.22